sensor_id;sensor_type;location;lat;lon;timestamp;temperature;humidity
11764;DHT22;5939;56.522;14.950;2022-10-13T00:02:10;10.00;99.90
11764;DHT22;5939;56.522;14.950;2022-10-13T00:04:36;10.00;99.90
11764;DHT22;5939;56.522;14.950;2022-10-13T00:07:01;10.00;99.90
11764;DHT22;5939;56.522;14.950;2022-10-13T00:09:27;10.00;99.90
11764;DHT22;5939;56.522;14.950;2022-10-13T00:11:56;10.00;99.90
11764;DHT22;5939;56.522;14.950;2022-10-13T00:14:22;10.00;99.90
11764;DHT22;5939;56.522;14.950;2022-10-13T00:16:47;10.00;99.90
11764;DHT22;5939;56.522;14.950;2022-10-13T00:19:13;10.00;99.90
11764;DHT22;5939;56.522;14.950;2022-10-13T00:21:39;10.00;99.90
11764;DHT22;5939;56.522;14.950;2022-10-13T00:24:04;10.00;99.90
11764;DHT22;5939;56.522;14.950;2022-10-13T00:26:30;10.00;99.90
11764;DHT22;5939;56.522;14.950;2022-10-13T00:28:56;10.00;99.90
11764;DHT22;5939;56.522;14.950;2022-10-13T00:31:30;10.00;99.90
11764;DHT22;5939;56.522;14.950;2022-10-13T00:34:00;10.00;99.90
11764;DHT22;5939;56.522;14.950;2022-10-13T00:36:27;10.00;99.90
11764;DHT22;5939;56.522;14.950;2022-10-13T00:38:53;10.00;99.90
11764;DHT22;5939;56.522;14.950;2022-10-13T00:41:19;10.00;99.90
11764;DHT22;5939;56.522;14.950;2022-10-13T00:43:56;10.00;99.90
11764;DHT22;5939;56.522;14.950;2022-10-13T00:46:23;10.00;99.90
11764;DHT22;5939;56.522;14.950;2022-10-13T00:48:50;10.00;99.90
11764;DHT22;5939;56.522;14.950;2022-10-13T00:51:20;10.00;99.90
11764;DHT22;5939;56.522;14.950;2022-10-13T00:53:47;10.00;99.90
11764;DHT22;5939;56.522;14.950;2022-10-13T00:56:14;10.00;99.90
11764;DHT22;5939;56.522;14.950;2022-10-13T00:58:42;10.00;99.90
11764;DHT22;5939;56.522;14.950;2022-10-13T01:01:08;9.90;99.90
11764;DHT22;5939;56.522;14.950;2022-10-13T01:03:34;10.00;99.90
11764;DHT22;5939;56.522;14.950;2022-10-13T01:06:02;10.00;99.90
11764;DHT22;5939;56.522;14.950;2022-10-13T01:08:29;10.00;99.90
11764;DHT22;5939;56.522;14.950;2022-10-13T01:13:56;10.00;99.90
11764;DHT22;5939;56.522;14.950;2022-10-13T01:24:43;10.00;99.90
11764;DHT22;5939;56.522;14.950;2022-10-13T01:27:19;10.00;99.90
11764;DHT22;5939;56.522;14.950;2022-10-13T01:32:41;10.00;99.90
11764;DHT22;5939;56.522;14.950;2022-10-13T01:35:19;10.00;99.90
11764;DHT22;5939;56.522;14.950;2022-10-13T01:37:53;10.00;99.90
11764;DHT22;5939;56.522;14.950;2022-10-13T01:40:27;10.00;99.90
11764;DHT22;5939;56.522;14.950;2022-10-13T01:43:06;9.90;99.90
11764;DHT22;5939;56.522;14.950;2022-10-13T01:46:00;10.00;99.90
11764;DHT22;5939;56.522;14.950;2022-10-13T01:48:28;10.00;99.90
11764;DHT22;5939;56.522;14.950;2022-10-13T01:50:55;10.00;99.90
11764;DHT22;5939;56.522;14.950;2022-10-13T01:53:23;10.00;99.90
11764;DHT22;5939;56.522;14.950;2022-10-13T01:55:58;9.90;99.90
11764;DHT22;5939;56.522;14.950;2022-10-13T01:58:26;10.00;99.90
11764;DHT22;5939;56.522;14.950;2022-10-13T02:06:04;10.00;99.90
11764;DHT22;5939;56.522;14.950;2022-10-13T02:09:02;9.90;99.90
11764;DHT22;5939;56.522;14.950;2022-10-13T02:11:28;9.90;99.90
11764;DHT22;5939;56.522;14.950;2022-10-13T02:14:13;9.90;99.90
11764;DHT22;5939;56.522;14.950;2022-10-13T02:16:42;9.90;99.90
11764;DHT22;5939;56.522;14.950;2022-10-13T02:19:13;10.00;99.90
11764;DHT22;5939;56.522;14.950;2022-10-13T02:21:39;9.90;99.90
11764;DHT22;5939;56.522;14.950;2022-10-13T02:24:06;9.90;99.90
11764;DHT22;5939;56.522;14.950;2022-10-13T02:26:33;9.90;99.90
11764;DHT22;5939;56.522;14.950;2022-10-13T02:28:59;9.90;99.90
11764;DHT22;5939;56.522;14.950;2022-10-13T02:31:31;9.90;99.90
11764;DHT22;5939;56.522;14.950;2022-10-13T02:33:57;10.00;99.90
11764;DHT22;5939;56.522;14.950;2022-10-13T02:36:23;10.00;99.90
11764;DHT22;5939;56.522;14.950;2022-10-13T02:38:48;10.00;99.90
11764;DHT22;5939;56.522;14.950;2022-10-13T02:41:14;9.90;99.90
11764;DHT22;5939;56.522;14.950;2022-10-13T02:43:39;10.00;99.90
11764;DHT22;5939;56.522;14.950;2022-10-13T02:46:05;10.00;99.90
11764;DHT22;5939;56.522;14.950;2022-10-13T02:48:31;10.00;99.90
11764;DHT22;5939;56.522;14.950;2022-10-13T02:50:56;9.90;99.90
11764;DHT22;5939;56.522;14.950;2022-10-13T02:53:22;9.90;99.90
11764;DHT22;5939;56.522;14.950;2022-10-13T02:55:48;9.90;99.90
11764;DHT22;5939;56.522;14.950;2022-10-13T02:58:13;9.90;99.90
11764;DHT22;5939;56.522;14.950;2022-10-13T03:00:39;9.90;99.90
11764;DHT22;5939;56.522;14.950;2022-10-13T03:03:05;10.00;99.90
11764;DHT22;5939;56.522;14.950;2022-10-13T03:05:31;9.90;99.90
11764;DHT22;5939;56.522;14.950;2022-10-13T03:07:57;9.90;99.90
11764;DHT22;5939;56.522;14.950;2022-10-13T03:10:23;9.90;99.90
11764;DHT22;5939;56.522;14.950;2022-10-13T03:12:48;9.90;99.90
11764;DHT22;5939;56.522;14.950;2022-10-13T03:15:14;10.00;99.90
11764;DHT22;5939;56.522;14.950;2022-10-13T03:17:40;9.90;99.90
11764;DHT22;5939;56.522;14.950;2022-10-13T03:20:06;9.90;99.90
11764;DHT22;5939;56.522;14.950;2022-10-13T03:22:32;9.90;99.90
11764;DHT22;5939;56.522;14.950;2022-10-13T03:24:58;9.90;99.90
11764;DHT22;5939;56.522;14.950;2022-10-13T03:27:24;9.90;99.90
11764;DHT22;5939;56.522;14.950;2022-10-13T03:29:49;9.90;99.90
11764;DHT22;5939;56.522;14.950;2022-10-13T03:32:15;10.00;99.90
11764;DHT22;5939;56.522;14.950;2022-10-13T03:34:41;9.90;99.90
11764;DHT22;5939;56.522;14.950;2022-10-13T03:37:07;9.90;99.90
11764;DHT22;5939;56.522;14.950;2022-10-13T03:39:33;9.90;99.90
11764;DHT22;5939;56.522;14.950;2022-10-13T03:41:58;9.90;99.90
11764;DHT22;5939;56.522;14.950;2022-10-13T03:44:24;9.90;99.90
11764;DHT22;5939;56.522;14.950;2022-10-13T03:46:50;9.90;99.90
11764;DHT22;5939;56.522;14.950;2022-10-13T03:49:15;9.90;99.90
11764;DHT22;5939;56.522;14.950;2022-10-13T03:51:43;9.90;99.90
11764;DHT22;5939;56.522;14.950;2022-10-13T03:54:11;9.90;99.90
11764;DHT22;5939;56.522;14.950;2022-10-13T03:56:37;9.90;99.90
11764;DHT22;5939;56.522;14.950;2022-10-13T03:59:04;10.00;99.90
11764;DHT22;5939;56.522;14.950;2022-10-13T04:01:31;9.90;99.90
11764;DHT22;5939;56.522;14.950;2022-10-13T04:03:59;10.00;99.90
11764;DHT22;5939;56.522;14.950;2022-10-13T04:06:27;10.00;99.90
11764;DHT22;5939;56.522;14.950;2022-10-13T04:08:53;10.00;99.90
11764;DHT22;5939;56.522;14.950;2022-10-13T04:11:20;10.00;99.90
11764;DHT22;5939;56.522;14.950;2022-10-13T04:13:46;9.90;99.90
11764;DHT22;5939;56.522;14.950;2022-10-13T04:16:15;9.90;99.90
11764;DHT22;5939;56.522;14.950;2022-10-13T04:18:41;10.00;99.90
11764;DHT22;5939;56.522;14.950;2022-10-13T04:21:12;10.00;99.90
11764;DHT22;5939;56.522;14.950;2022-10-13T04:23:38;10.00;99.90
11764;DHT22;5939;56.522;14.950;2022-10-13T04:26:04;10.00;99.90
11764;DHT22;5939;56.522;14.950;2022-10-13T04:28:31;10.00;99.90
11764;DHT22;5939;56.522;14.950;2022-10-13T04:31:01;9.90;99.90
11764;DHT22;5939;56.522;14.950;2022-10-13T04:33:26;9.90;99.90
11764;DHT22;5939;56.522;14.950;2022-10-13T04:35:52;10.00;99.90
11764;DHT22;5939;56.522;14.950;2022-10-13T04:38:18;9.90;99.90
11764;DHT22;5939;56.522;14.950;2022-10-13T04:40:43;10.00;99.90
11764;DHT22;5939;56.522;14.950;2022-10-13T04:43:09;10.00;99.90
11764;DHT22;5939;56.522;14.950;2022-10-13T04:45:34;10.00;99.90
11764;DHT22;5939;56.522;14.950;2022-10-13T04:48:00;10.00;99.90
11764;DHT22;5939;56.522;14.950;2022-10-13T04:50:26;10.00;99.90
11764;DHT22;5939;56.522;14.950;2022-10-13T04:52:52;10.00;99.90
11764;DHT22;5939;56.522;14.950;2022-10-13T04:55:17;10.00;99.90
11764;DHT22;5939;56.522;14.950;2022-10-13T04:57:43;9.90;99.90
11764;DHT22;5939;56.522;14.950;2022-10-13T05:00:09;10.00;99.90
11764;DHT22;5939;56.522;14.950;2022-10-13T05:02:36;10.00;99.90
11764;DHT22;5939;56.522;14.950;2022-10-13T05:05:02;10.00;99.90
11764;DHT22;5939;56.522;14.950;2022-10-13T05:07:29;10.00;99.90
11764;DHT22;5939;56.522;14.950;2022-10-13T05:09:54;10.00;99.90
11764;DHT22;5939;56.522;14.950;2022-10-13T05:12:20;10.00;99.90
11764;DHT22;5939;56.522;14.950;2022-10-13T05:14:46;10.00;99.90
11764;DHT22;5939;56.522;14.950;2022-10-13T05:17:11;10.00;99.90
11764;DHT22;5939;56.522;14.950;2022-10-13T05:19:37;10.00;99.90
11764;DHT22;5939;56.522;14.950;2022-10-13T05:22:03;9.90;99.90
11764;DHT22;5939;56.522;14.950;2022-10-13T05:24:29;9.90;99.90
11764;DHT22;5939;56.522;14.950;2022-10-13T05:27:19;10.00;99.90
11764;DHT22;5939;56.522;14.950;2022-10-13T05:29:44;9.90;99.90
11764;DHT22;5939;56.522;14.950;2022-10-13T05:32:10;10.00;99.90
11764;DHT22;5939;56.522;14.950;2022-10-13T05:34:36;9.90;99.90
11764;DHT22;5939;56.522;14.950;2022-10-13T05:37:01;9.90;99.90
11764;DHT22;5939;56.522;14.950;2022-10-13T05:39:27;9.90;99.90
11764;DHT22;5939;56.522;14.950;2022-10-13T05:41:53;9.90;99.90
11764;DHT22;5939;56.522;14.950;2022-10-13T05:44:18;9.90;99.90
11764;DHT22;5939;56.522;14.950;2022-10-13T05:46:45;10.00;99.90
11764;DHT22;5939;56.522;14.950;2022-10-13T05:49:10;9.90;99.90
11764;DHT22;5939;56.522;14.950;2022-10-13T05:51:39;9.90;99.90
11764;DHT22;5939;56.522;14.950;2022-10-13T05:54:16;9.90;99.90
11764;DHT22;5939;56.522;14.950;2022-10-13T05:56:47;9.90;99.90
11764;DHT22;5939;56.522;14.950;2022-10-13T05:59:15;9.90;99.90
11764;DHT22;5939;56.522;14.950;2022-10-13T06:01:43;9.90;99.90
11764;DHT22;5939;56.522;14.950;2022-10-13T06:04:19;9.90;99.90
11764;DHT22;5939;56.522;14.950;2022-10-13T06:06:47;9.90;99.90
11764;DHT22;5939;56.522;14.950;2022-10-13T06:09:12;9.90;99.90
11764;DHT22;5939;56.522;14.950;2022-10-13T06:11:38;9.90;99.90
11764;DHT22;5939;56.522;14.950;2022-10-13T06:14:04;9.90;99.90
11764;DHT22;5939;56.522;14.950;2022-10-13T06:16:29;9.90;99.90
11764;DHT22;5939;56.522;14.950;2022-10-13T06:18:55;9.90;99.90
11764;DHT22;5939;56.522;14.950;2022-10-13T06:21:21;9.90;99.90
11764;DHT22;5939;56.522;14.950;2022-10-13T06:23:46;9.90;99.90
11764;DHT22;5939;56.522;14.950;2022-10-13T06:26:12;9.90;99.90
11764;DHT22;5939;56.522;14.950;2022-10-13T06:28:37;9.90;99.90
11764;DHT22;5939;56.522;14.950;2022-10-13T06:31:06;9.90;99.90
11764;DHT22;5939;56.522;14.950;2022-10-13T06:33:32;9.90;99.90
11764;DHT22;5939;56.522;14.950;2022-10-13T06:36:03;9.90;99.90
11764;DHT22;5939;56.522;14.950;2022-10-13T06:38:29;9.90;99.90
11764;DHT22;5939;56.522;14.950;2022-10-13T06:41:02;9.90;99.90
11764;DHT22;5939;56.522;14.950;2022-10-13T06:43:28;9.90;99.90
11764;DHT22;5939;56.522;14.950;2022-10-13T06:45:57;10.00;99.90
11764;DHT22;5939;56.522;14.950;2022-10-13T06:48:24;10.00;99.90
11764;DHT22;5939;56.522;14.950;2022-10-13T06:50:50;9.90;99.90
11764;DHT22;5939;56.522;14.950;2022-10-13T06:53:15;10.00;99.90
11764;DHT22;5939;56.522;14.950;2022-10-13T06:55:41;10.00;99.90
11764;DHT22;5939;56.522;14.950;2022-10-13T06:58:09;10.00;99.90
11764;DHT22;5939;56.522;14.950;2022-10-13T07:00:35;10.00;99.90
11764;DHT22;5939;56.522;14.950;2022-10-13T07:03:01;10.00;99.90
11764;DHT22;5939;56.522;14.950;2022-10-13T07:05:26;10.00;99.90
11764;DHT22;5939;56.522;14.950;2022-10-13T07:07:52;10.00;99.90
11764;DHT22;5939;56.522;14.950;2022-10-13T07:10:21;10.00;99.90
11764;DHT22;5939;56.522;14.950;2022-10-13T07:12:46;10.00;99.90
11764;DHT22;5939;56.522;14.950;2022-10-13T07:15:12;10.00;99.90
11764;DHT22;5939;56.522;14.950;2022-10-13T07:17:37;10.00;99.90
11764;DHT22;5939;56.522;14.950;2022-10-13T07:20:04;10.00;99.90
11764;DHT22;5939;56.522;14.950;2022-10-13T07:22:30;10.00;99.90
11764;DHT22;5939;56.522;14.950;2022-10-13T07:24:56;10.10;99.90
11764;DHT22;5939;56.522;14.950;2022-10-13T07:27:22;10.10;99.90
11764;DHT22;5939;56.522;14.950;2022-10-13T07:29:48;10.10;99.90
11764;DHT22;5939;56.522;14.950;2022-10-13T07:32:14;10.10;99.90
11764;DHT22;5939;56.522;14.950;2022-10-13T07:34:40;10.10;99.90
11764;DHT22;5939;56.522;14.950;2022-10-13T07:37:05;10.10;99.90
11764;DHT22;5939;56.522;14.950;2022-10-13T07:39:31;10.10;99.90
11764;DHT22;5939;56.522;14.950;2022-10-13T07:41:56;10.20;99.90
11764;DHT22;5939;56.522;14.950;2022-10-13T07:44:22;10.20;99.90
11764;DHT22;5939;56.522;14.950;2022-10-13T07:46:48;10.20;99.90
11764;DHT22;5939;56.522;14.950;2022-10-13T07:49:13;10.20;99.90
11764;DHT22;5939;56.522;14.950;2022-10-13T07:51:39;10.20;99.90
11764;DHT22;5939;56.522;14.950;2022-10-13T07:54:05;10.20;99.90
11764;DHT22;5939;56.522;14.950;2022-10-13T07:56:31;10.30;99.90
11764;DHT22;5939;56.522;14.950;2022-10-13T07:58:56;10.30;99.90
11764;DHT22;5939;56.522;14.950;2022-10-13T08:01:22;10.30;99.90
11764;DHT22;5939;56.522;14.950;2022-10-13T08:03:47;10.30;99.90
11764;DHT22;5939;56.522;14.950;2022-10-13T08:06:13;10.30;99.90
11764;DHT22;5939;56.522;14.950;2022-10-13T08:08:39;10.40;99.90
11764;DHT22;5939;56.522;14.950;2022-10-13T08:11:11;10.40;99.90
11764;DHT22;5939;56.522;14.950;2022-10-13T08:13:36;10.40;99.90
11764;DHT22;5939;56.522;14.950;2022-10-13T08:16:03;10.50;99.90
11764;DHT22;5939;56.522;14.950;2022-10-13T08:18:29;10.40;99.90
11764;DHT22;5939;56.522;14.950;2022-10-13T08:20:59;10.50;99.90
11764;DHT22;5939;56.522;14.950;2022-10-13T08:23:25;10.50;99.90
11764;DHT22;5939;56.522;14.950;2022-10-13T08:25:51;10.50;99.90
11764;DHT22;5939;56.522;14.950;2022-10-13T08:28:25;10.50;99.90
11764;DHT22;5939;56.522;14.950;2022-10-13T08:30:51;10.60;99.90
11764;DHT22;5939;56.522;14.950;2022-10-13T08:33:18;10.60;99.90
11764;DHT22;5939;56.522;14.950;2022-10-13T08:35:44;10.60;99.90
11764;DHT22;5939;56.522;14.950;2022-10-13T08:38:10;10.60;99.90
11764;DHT22;5939;56.522;14.950;2022-10-13T08:40:37;10.70;99.90
11764;DHT22;5939;56.522;14.950;2022-10-13T08:43:07;10.70;99.90
11764;DHT22;5939;56.522;14.950;2022-10-13T08:45:34;10.70;99.90
11764;DHT22;5939;56.522;14.950;2022-10-13T08:48:04;10.70;99.90
11764;DHT22;5939;56.522;14.950;2022-10-13T08:50:35;10.80;99.90
11764;DHT22;5939;56.522;14.950;2022-10-13T08:53:04;10.80;99.90
11764;DHT22;5939;56.522;14.950;2022-10-13T08:55:36;10.80;99.90
11764;DHT22;5939;56.522;14.950;2022-10-13T08:58:20;10.80;99.90
11764;DHT22;5939;56.522;14.950;2022-10-13T09:00:46;10.90;99.90
11764;DHT22;5939;56.522;14.950;2022-10-13T09:03:23;10.80;99.90
11764;DHT22;5939;56.522;14.950;2022-10-13T09:06:20;11.70;99.90
11764;DHT22;5939;56.522;14.950;2022-10-13T09:11:18;10.90;99.90
11764;DHT22;5939;56.522;14.950;2022-10-13T09:13:44;11.00;99.90
11764;DHT22;5939;56.522;14.950;2022-10-13T09:16:10;11.00;99.90
11764;DHT22;5939;56.522;14.950;2022-10-13T09:18:36;11.00;99.90
11764;DHT22;5939;56.522;14.950;2022-10-13T09:21:23;11.00;99.90
11764;DHT22;5939;56.522;14.950;2022-10-13T09:23:50;11.10;99.90
11764;DHT22;5939;56.522;14.950;2022-10-13T09:26:22;11.10;99.90
11764;DHT22;5939;56.522;14.950;2022-10-13T09:28:49;11.20;99.90
11764;DHT22;5939;56.522;14.950;2022-10-13T09:31:21;11.20;99.90
11764;DHT22;5939;56.522;14.950;2022-10-13T09:34:38;11.20;99.90
11764;DHT22;5939;56.522;14.950;2022-10-13T09:37:03;11.20;99.90
11764;DHT22;5939;56.522;14.950;2022-10-13T09:39:30;11.30;99.90
11764;DHT22;5939;56.522;14.950;2022-10-13T09:44:44;11.30;99.90
11764;DHT22;5939;56.522;14.950;2022-10-13T09:47:18;11.30;99.90
11764;DHT22;5939;56.522;14.950;2022-10-13T09:49:45;11.40;99.90
11764;DHT22;5939;56.522;14.950;2022-10-13T09:54:45;11.50;99.90
11764;DHT22;5939;56.522;14.950;2022-10-13T09:59:46;11.50;99.90
11764;DHT22;5939;56.522;14.950;2022-10-13T10:04:41;11.60;99.90
11764;DHT22;5939;56.522;14.950;2022-10-13T10:07:12;11.60;99.90
11764;DHT22;5939;56.522;14.950;2022-10-13T10:10:05;11.60;99.90
11764;DHT22;5939;56.522;14.950;2022-10-13T10:12:35;11.70;99.90
11764;DHT22;5939;56.522;14.950;2022-10-13T10:15:23;11.70;99.90
11764;DHT22;5939;56.522;14.950;2022-10-13T10:18:01;11.70;99.90
11764;DHT22;5939;56.522;14.950;2022-10-13T10:20:34;11.80;99.90
11764;DHT22;5939;56.522;14.950;2022-10-13T10:23:16;11.80;99.90
11764;DHT22;5939;56.522;14.950;2022-10-13T10:25:50;11.80;99.90
11764;DHT22;5939;56.522;14.950;2022-10-13T10:31:01;11.90;99.90
11764;DHT22;5939;56.522;14.950;2022-10-13T10:33:44;11.90;99.90
11764;DHT22;5939;56.522;14.950;2022-10-13T10:36:30;11.90;99.90
11764;DHT22;5939;56.522;14.950;2022-10-13T10:39:53;11.90;99.90
11764;DHT22;5939;56.522;14.950;2022-10-13T10:42:17;12.00;99.90
11764;DHT22;5939;56.522;14.950;2022-10-13T10:44:46;12.00;99.90
11764;DHT22;5939;56.522;14.950;2022-10-13T10:47:27;12.00;99.90
11764;DHT22;5939;56.522;14.950;2022-10-13T10:49:59;12.10;99.90
11764;DHT22;5939;56.522;14.950;2022-10-13T10:53:03;12.10;99.90
11764;DHT22;5939;56.522;14.950;2022-10-13T10:58:09;12.20;99.90
11764;DHT22;5939;56.522;14.950;2022-10-13T11:01:21;12.30;99.90
11764;DHT22;5939;56.522;14.950;2022-10-13T11:03:55;12.30;99.90
11764;DHT22;5939;56.522;14.950;2022-10-13T11:06:34;12.40;99.90
11764;DHT22;5939;56.522;14.950;2022-10-13T11:09:00;12.40;99.90
11764;DHT22;5939;56.522;14.950;2022-10-13T11:14:22;12.50;99.90
11764;DHT22;5939;56.522;14.950;2022-10-13T11:19:28;12.60;99.90
11764;DHT22;5939;56.522;14.950;2022-10-13T11:43:15;12.80;99.90
11764;DHT22;5939;56.522;14.950;2022-10-13T11:54:50;12.90;99.90
11764;DHT22;5939;56.522;14.950;2022-10-13T11:57:28;12.90;99.90
11764;DHT22;5939;56.522;14.950;2022-10-13T11:59:57;12.90;99.90
11764;DHT22;5939;56.522;14.950;2022-10-13T12:02:24;12.90;99.90
11764;DHT22;5939;56.522;14.950;2022-10-13T12:05:27;12.90;99.90
11764;DHT22;5939;56.522;14.950;2022-10-13T12:07:58;12.90;99.90
11764;DHT22;5939;56.522;14.950;2022-10-13T12:10:32;12.90;99.90
11764;DHT22;5939;56.522;14.950;2022-10-13T12:12:58;12.90;99.90
11764;DHT22;5939;56.522;14.950;2022-10-13T12:15:29;12.90;99.90
11764;DHT22;5939;56.522;14.950;2022-10-13T12:17:55;12.90;99.90
11764;DHT22;5939;56.522;14.950;2022-10-13T12:20:24;12.90;99.90
11764;DHT22;5939;56.522;14.950;2022-10-13T12:22:52;12.90;99.90
11764;DHT22;5939;56.522;14.950;2022-10-13T12:25:20;12.90;99.90
11764;DHT22;5939;56.522;14.950;2022-10-13T12:27:52;12.90;99.90
11764;DHT22;5939;56.522;14.950;2022-10-13T12:30:25;12.90;99.90
11764;DHT22;5939;56.522;14.950;2022-10-13T12:32:53;13.00;99.90
11764;DHT22;5939;56.522;14.950;2022-10-13T12:35:22;12.90;99.90
11764;DHT22;5939;56.522;14.950;2022-10-13T12:37:48;13.00;99.90
11764;DHT22;5939;56.522;14.950;2022-10-13T12:40:16;13.00;99.90
11764;DHT22;5939;56.522;14.950;2022-10-13T12:42:43;13.00;99.90
11764;DHT22;5939;56.522;14.950;2022-10-13T12:45:15;13.00;99.90
11764;DHT22;5939;56.522;14.950;2022-10-13T12:47:46;13.00;99.90
11764;DHT22;5939;56.522;14.950;2022-10-13T12:52:51;13.00;99.90
11764;DHT22;5939;56.522;14.950;2022-10-13T12:55:19;13.00;99.90
11764;DHT22;5939;56.522;14.950;2022-10-13T12:57:50;12.90;99.90
11764;DHT22;5939;56.522;14.950;2022-10-13T13:02:41;13.00;99.90
11764;DHT22;5939;56.522;14.950;2022-10-13T13:05:35;13.00;99.90
11764;DHT22;5939;56.522;14.950;2022-10-13T13:08:03;13.00;99.90
11764;DHT22;5939;56.522;14.950;2022-10-13T13:10:29;12.90;99.90
11764;DHT22;5939;56.522;14.950;2022-10-13T13:13:11;13.00;99.90
11764;DHT22;5939;56.522;14.950;2022-10-13T13:15:38;12.90;99.90
11764;DHT22;5939;56.522;14.950;2022-10-13T13:18:35;13.00;99.90
11764;DHT22;5939;56.522;14.950;2022-10-13T13:21:05;13.00;99.90
11764;DHT22;5939;56.522;14.950;2022-10-13T13:23:31;13.00;99.90
11764;DHT22;5939;56.522;14.950;2022-10-13T13:26:11;13.00;99.90
11764;DHT22;5939;56.522;14.950;2022-10-13T13:28:49;13.00;99.90
11764;DHT22;5939;56.522;14.950;2022-10-13T13:31:16;13.00;99.90
11764;DHT22;5939;56.522;14.950;2022-10-13T13:33:42;13.00;99.90
11764;DHT22;5939;56.522;14.950;2022-10-13T13:36:22;13.00;99.90
11764;DHT22;5939;56.522;14.950;2022-10-13T13:38:49;13.00;99.90
11764;DHT22;5939;56.522;14.950;2022-10-13T13:41:17;13.00;99.90
11764;DHT22;5939;56.522;14.950;2022-10-13T13:43:43;13.00;99.90
11764;DHT22;5939;56.522;14.950;2022-10-13T13:46:16;13.00;99.90
11764;DHT22;5939;56.522;14.950;2022-10-13T13:48:42;13.00;99.90
11764;DHT22;5939;56.522;14.950;2022-10-13T13:51:08;13.00;99.90
11764;DHT22;5939;56.522;14.950;2022-10-13T13:53:34;13.00;99.90
11764;DHT22;5939;56.522;14.950;2022-10-13T13:56:00;13.00;99.90
11764;DHT22;5939;56.522;14.950;2022-10-13T13:58:26;13.00;99.90
11764;DHT22;5939;56.522;14.950;2022-10-13T14:00:51;13.00;99.90
11764;DHT22;5939;56.522;14.950;2022-10-13T14:03:17;13.00;99.90
11764;DHT22;5939;56.522;14.950;2022-10-13T14:05:43;13.00;99.90
11764;DHT22;5939;56.522;14.950;2022-10-13T14:08:08;12.90;99.90
11764;DHT22;5939;56.522;14.950;2022-10-13T14:10:34;13.00;99.90
11764;DHT22;5939;56.522;14.950;2022-10-13T14:12:59;13.00;99.90
11764;DHT22;5939;56.522;14.950;2022-10-13T14:15:25;13.00;99.90
11764;DHT22;5939;56.522;14.950;2022-10-13T14:17:52;13.00;99.90
11764;DHT22;5939;56.522;14.950;2022-10-13T14:20:18;13.00;99.90
11764;DHT22;5939;56.522;14.950;2022-10-13T14:22:44;13.00;99.90
11764;DHT22;5939;56.522;14.950;2022-10-13T14:25:10;13.00;99.90
11764;DHT22;5939;56.522;14.950;2022-10-13T14:27:36;13.00;99.90
11764;DHT22;5939;56.522;14.950;2022-10-13T14:30:06;13.00;99.90
11764;DHT22;5939;56.522;14.950;2022-10-13T14:32:33;13.00;99.90
11764;DHT22;5939;56.522;14.950;2022-10-13T14:34:59;13.00;99.90
11764;DHT22;5939;56.522;14.950;2022-10-13T14:37:25;13.00;99.90
11764;DHT22;5939;56.522;14.950;2022-10-13T14:39:51;13.00;99.90
11764;DHT22;5939;56.522;14.950;2022-10-13T14:42:16;13.00;99.90
11764;DHT22;5939;56.522;14.950;2022-10-13T14:44:42;13.00;99.90
11764;DHT22;5939;56.522;14.950;2022-10-13T14:47:07;13.00;99.90
11764;DHT22;5939;56.522;14.950;2022-10-13T14:49:33;13.00;99.90
11764;DHT22;5939;56.522;14.950;2022-10-13T14:51:59;13.00;99.90
11764;DHT22;5939;56.522;14.950;2022-10-13T14:54:24;13.00;99.90
11764;DHT22;5939;56.522;14.950;2022-10-13T14:56:50;13.00;99.90
11764;DHT22;5939;56.522;14.950;2022-10-13T14:59:16;12.90;99.90
11764;DHT22;5939;56.522;14.950;2022-10-13T15:01:43;12.90;99.90
11764;DHT22;5939;56.522;14.950;2022-10-13T15:04:10;12.90;99.90
11764;DHT22;5939;56.522;14.950;2022-10-13T15:06:36;12.90;99.90
11764;DHT22;5939;56.522;14.950;2022-10-13T15:09:04;12.90;99.90
11764;DHT22;5939;56.522;14.950;2022-10-13T15:11:30;12.90;99.90
11764;DHT22;5939;56.522;14.950;2022-10-13T15:13:55;12.90;99.90
11764;DHT22;5939;56.522;14.950;2022-10-13T15:16:26;12.90;99.90
11764;DHT22;5939;56.522;14.950;2022-10-13T15:18:53;12.90;99.90
11764;DHT22;5939;56.522;14.950;2022-10-13T15:21:19;12.90;99.90
11764;DHT22;5939;56.522;14.950;2022-10-13T15:23:45;12.90;99.90
11764;DHT22;5939;56.522;14.950;2022-10-13T15:26:13;12.90;99.90
11764;DHT22;5939;56.522;14.950;2022-10-13T15:28:41;12.90;99.90
11764;DHT22;5939;56.522;14.950;2022-10-13T15:31:07;12.90;99.90
11764;DHT22;5939;56.522;14.950;2022-10-13T15:33:33;12.90;99.90
11764;DHT22;5939;56.522;14.950;2022-10-13T15:35:59;12.90;99.90
11764;DHT22;5939;56.522;14.950;2022-10-13T15:38:25;12.90;99.90
11764;DHT22;5939;56.522;14.950;2022-10-13T15:40:51;12.90;99.90
11764;DHT22;5939;56.522;14.950;2022-10-13T15:43:17;12.90;99.90
11764;DHT22;5939;56.522;14.950;2022-10-13T15:45:53;12.90;99.90
11764;DHT22;5939;56.522;14.950;2022-10-13T15:48:19;12.90;99.90
11764;DHT22;5939;56.522;14.950;2022-10-13T15:50:44;12.80;99.90
11764;DHT22;5939;56.522;14.950;2022-10-13T15:53:10;12.90;99.90
11764;DHT22;5939;56.522;14.950;2022-10-13T15:55:37;12.80;99.90
11764;DHT22;5939;56.522;14.950;2022-10-13T15:58:03;12.80;99.90
11764;DHT22;5939;56.522;14.950;2022-10-13T16:00:29;12.80;99.90
11764;DHT22;5939;56.522;14.950;2022-10-13T16:02:54;12.80;99.90
11764;DHT22;5939;56.522;14.950;2022-10-13T16:05:20;12.80;99.90
11764;DHT22;5939;56.522;14.950;2022-10-13T16:07:45;12.80;99.90
11764;DHT22;5939;56.522;14.950;2022-10-13T16:10:13;12.80;99.90
11764;DHT22;5939;56.522;14.950;2022-10-13T16:12:40;12.80;99.90
11764;DHT22;5939;56.522;14.950;2022-10-13T16:15:06;12.80;99.90
11764;DHT22;5939;56.522;14.950;2022-10-13T16:17:32;12.80;99.90
11764;DHT22;5939;56.522;14.950;2022-10-13T16:19:58;12.80;99.90
11764;DHT22;5939;56.522;14.950;2022-10-13T16:22:24;12.80;99.90
11764;DHT22;5939;56.522;14.950;2022-10-13T16:24:49;12.80;99.90
11764;DHT22;5939;56.522;14.950;2022-10-13T16:27:15;12.70;99.90
11764;DHT22;5939;56.522;14.950;2022-10-13T16:29:41;12.70;99.90
11764;DHT22;5939;56.522;14.950;2022-10-13T16:32:07;12.70;99.90
11764;DHT22;5939;56.522;14.950;2022-10-13T16:34:32;12.70;99.90
11764;DHT22;5939;56.522;14.950;2022-10-13T16:36:58;12.70;99.90
11764;DHT22;5939;56.522;14.950;2022-10-13T16:39:24;12.70;99.90
11764;DHT22;5939;56.522;14.950;2022-10-13T16:41:51;12.70;99.90
11764;DHT22;5939;56.522;14.950;2022-10-13T16:44:16;12.70;99.90
11764;DHT22;5939;56.522;14.950;2022-10-13T16:46:43;12.70;99.90
11764;DHT22;5939;56.522;14.950;2022-10-13T16:49:09;12.60;99.90
11764;DHT22;5939;56.522;14.950;2022-10-13T16:51:35;12.60;99.90
11764;DHT22;5939;56.522;14.950;2022-10-13T16:54:01;12.70;99.90
11764;DHT22;5939;56.522;14.950;2022-10-13T16:56:27;12.60;99.90
11764;DHT22;5939;56.522;14.950;2022-10-13T16:58:55;12.60;99.90
11764;DHT22;5939;56.522;14.950;2022-10-13T17:01:22;12.60;99.90
11764;DHT22;5939;56.522;14.950;2022-10-13T17:03:49;12.60;99.90